Time;durP1;ratioP1;P1;durP2;ratioP2;P2;SDS_P1;SDS_P2;PMS_P1;PMS_P2;Temp;Humidity;BMP_temperature;BMP_pressure;BME280_temperature;BME280_humidity;BME280_pressure;Samples;Min_cycle;Max_cycle;Signal;HPM_P1;HPM_P2
2023/09/24 00:01:13;;;;;;;1.40;0.50;;;11.70;90.80;;;;;;6087214;23;20010;-78
2023/09/24 00:03:39;;;;;;;1.13;0.57;;;11.70;90.90;;;;;;6090469;23;20014;-78
2023/09/24 00:06:08;;;;;;;0.40;0.40;;;11.70;90.90;;;;;;6091619;23;19991;-78
2023/09/24 00:08:34;;;;;;;0.75;0.60;;;11.60;90.90;;;;;;6067737;23;20007;-78
2023/09/24 00:11:02;;;;;;;0.40;0.40;;;11.60;90.90;;;;;;6115857;23;20006;-77
2023/09/24 00:13:29;;;;;;;0.90;0.47;;;11.60;90.90;;;;;;6145192;23;20002;-79
2023/09/24 00:16:04;;;;;;;0.75;0.75;;;11.50;90.90;;;;;;6060849;23;20007;-79
2023/09/24 00:18:31;;;;;;;0.47;0.40;;;11.50;90.90;;;;;;6114700;23;20014;-79
2023/09/24 00:20:57;;;;;;;0.40;0.40;;;11.50;90.90;;;;;;6121132;23;20078;-78
2023/09/24 00:23:22;;;;;;;0.82;0.40;;;11.50;90.90;;;;;;6097372;23;19994;-78
2023/09/24 00:25:49;;;;;;;0.30;0.30;;;11.50;91.20;;;;;;6072218;23;20010;-79
2023/09/24 00:28:15;;;;;;;0.50;0.50;;;11.40;90.90;;;;;;6096134;23;19998;-78
2023/09/24 00:30:43;;;;;;;0.45;0.40;;;11.40;90.90;;;;;;6095443;23;20022;-77
2023/09/24 00:33:09;;;;;;;0.65;0.40;;;11.40;90.90;;;;;;6095488;23;20006;-78
2023/09/24 00:35:35;;;;;;;0.82;0.60;;;11.40;90.90;;;;;;6070725;23;20085;-78
2023/09/24 00:38:01;;;;;;;0.60;0.30;;;11.40;90.90;;;;;;6118731;23;20015;-78
2023/09/24 00:40:27;;;;;;;0.55;0.45;;;11.40;90.90;;;;;;6093962;23;20026;-78
2023/09/24 00:42:53;;;;;;;0.60;0.50;;;11.40;90.80;;;;;;6069480;23;20014;-78
2023/09/24 00:45:22;;;;;;;0.45;0.43;;;11.40;90.80;;;;;;6069272;23;20002;-77
2023/09/24 00:47:49;;;;;;;0.90;0.80;;;11.40;90.80;;;;;;6174832;23;20020;-77
2023/09/24 00:50:15;;;;;;;0.90;0.70;;;11.30;90.80;;;;;;6208234;23;20045;-78
2023/09/24 00:52:43;;;;;;;1.27;0.57;;;11.30;90.80;;;;;;6181003;23;19997;-78
2023/09/24 00:55:10;;;;;;;0.57;0.57;;;11.30;90.90;;;;;;6156404;23;20072;-78
2023/09/24 00:57:36;;;;;;;0.90;0.63;;;11.30;90.90;;;;;;6155856;23;20005;-78
2023/09/24 01:00:16;;;;;;;0.47;0.47;;;11.30;90.90;;;;;;6180584;23;20409;-78
2023/09/24 01:02:44;;;;;;;0.60;0.47;;;11.30;90.90;;;;;;6179932;23;20342;-77
2023/09/24 01:05:10;;;;;;;1.08;0.63;;;11.10;90.80;;;;;;6155204;23;20052;-78
2023/09/24 01:07:37;;;;;;;0.52;0.45;;;11.20;90.90;;;;;;6154677;23;19997;-78
2023/09/24 01:10:04;;;;;;;0.32;0.32;;;11.10;90.90;;;;;;6152243;23;20008;-78
2023/09/24 01:12:30;;;;;;;0.80;0.47;;;11.00;90.80;;;;;;6152512;23;20532;-78
2023/09/24 01:14:58;;;;;;;0.50;0.50;;;11.10;90.90;;;;;;6205060;23;20009;-78
2023/09/24 01:17:25;;;;;;;0.70;0.70;;;11.10;90.90;;;;;;6178222;23;20065;-78
2023/09/24 01:19:53;;;;;;;0.63;0.60;;;11.10;90.90;;;;;;6127967;23;20009;-78
2023/09/24 01:22:19;;;;;;;1.27;0.70;;;11.10;90.90;;;;;;6176218;23;20113;-78
2023/09/24 01:24:44;;;;;;;0.50;0.50;;;11.10;90.90;;;;;;6153574;23;20028;-78
2023/09/24 01:27:10;;;;;;;0.70;0.70;;;11.00;90.90;;;;;;6128680;23;19997;-78
2023/09/24 01:29:36;;;;;;;0.55;0.40;;;11.00;90.90;;;;;;6154166;23;20013;-78
2023/09/24 01:32:06;;;;;;;0.40;0.40;;;11.00;90.90;;;;;;6153711;23;19978;-78
2023/09/24 01:34:35;;;;;;;0.63;0.60;;;11.00;90.90;;;;;;6141077;23;20030;-78
2023/09/24 01:37:08;;;;;;;0.40;0.40;;;10.90;90.90;;;;;;6117173;23;20347;-77
2023/09/24 01:39:36;;;;;;;1.08;0.70;;;10.90;90.90;;;;;;6090837;23;20010;-78
2023/09/24 01:42:02;;;;;;;0.73;0.47;;;10.90;90.90;;;;;;6116266;23;20070;-77
2023/09/24 01:44:29;;;;;;;0.85;0.80;;;10.90;90.90;;;;;;6140042;23;20081;-78
2023/09/24 01:46:55;;;;;;;0.60;0.50;;;10.90;91.00;;;;;;6116117;23;20009;-79
2023/09/24 01:49:21;;;;;;;0.73;0.55;;;10.80;90.90;;;;;;6115108;23;20006;-78
2023/09/24 01:51:47;;;;;;;0.57;0.50;;;10.80;90.90;;;;;;6117301;23;20017;-78
2023/09/24 01:54:13;;;;;;;0.65;0.65;;;10.80;91.00;;;;;;6093091;23;20021;-78
2023/09/24 01:56:39;;;;;;;0.60;0.60;;;10.80;90.90;;;;;;6139794;23;20006;-77
2023/09/24 01:59:05;;;;;;;1.10;0.65;;;10.80;90.90;;;;;;6114657;23;20065;-78
2023/09/24 02:01:31;;;;;;;0.80;0.68;;;10.80;91.00;;;;;;6113165;23;20057;-77
2023/09/24 02:03:59;;;;;;;0.80;0.75;;;10.70;90.90;;;;;;6113408;23;20021;-77
2023/09/24 02:06:25;;;;;;;0.70;0.60;;;10.70;90.90;;;;;;6193244;23;20005;-77
2023/09/24 02:08:51;;;;;;;0.50;0.50;;;10.70;90.90;;;;;;6152135;23;20005;-78
2023/09/24 02:11:18;;;;;;;0.50;0.50;;;10.70;90.90;;;;;;6126540;23;20274;-78
2023/09/24 02:13:43;;;;;;;1.02;0.80;;;10.70;90.90;;;;;;6203308;23;20001;-77
2023/09/24 02:16:09;;;;;;;0.75;0.75;;;10.70;90.90;;;;;;6148242;23;20011;-78
2023/09/24 02:18:36;;;;;;;1.23;0.88;;;10.70;90.90;;;;;;6146613;23;20032;-77
2023/09/24 02:21:02;;;;;;;0.63;0.63;;;10.70;90.90;;;;;;6150242;23;19997;-78
2023/09/24 02:23:28;;;;;;;0.55;0.55;;;10.70;90.90;;;;;;6196294;23;20016;-78
2023/09/24 02:25:55;;;;;;;0.57;0.57;;;10.70;90.90;;;;;;6171204;23;20016;-78
2023/09/24 02:28:21;;;;;;;0.90;0.70;;;10.70;90.90;;;;;;6199679;23;20001;-78
2023/09/24 02:30:48;;;;;;;0.63;0.63;;;10.70;90.90;;;;;;6172510;23;20481;-77
2023/09/24 02:33:14;;;;;;;0.50;0.50;;;10.70;90.90;;;;;;6149098;23;20073;-78
2023/09/24 02:35:40;;;;;;;0.80;0.75;;;10.70;90.90;;;;;;6173906;23;19997;-78
2023/09/24 02:38:07;;;;;;;0.60;0.60;;;10.60;90.90;;;;;;6170715;23;20072;-78
2023/09/24 02:40:32;;;;;;;1.50;0.90;;;10.60;90.90;;;;;;6145844;23;20081;-77
2023/09/24 02:43:00;;;;;;;0.98;0.70;;;10.60;90.90;;;;;;6168596;23;20001;-78
2023/09/24 02:45:29;;;;;;;0.80;0.80;;;10.60;90.90;;;;;;6167921;23;20092;-77
2023/09/24 02:47:56;;;;;;;0.90;0.60;;;10.60;90.90;;;;;;6143091;23;19993;-77
2023/09/24 02:50:25;;;;;;;0.65;0.60;;;10.60;90.90;;;;;;6142668;23;19997;-77
2023/09/24 02:52:54;;;;;;;1.58;0.85;;;10.60;91.00;;;;;;6141504;23;20092;-78
2023/09/24 02:55:22;;;;;;;0.70;0.65;;;10.60;90.90;;;;;;6191904;23;20079;-78
2023/09/24 02:57:52;;;;;;;0.93;0.55;;;10.50;90.90;;;;;;6138973;23;20008;-78
2023/09/24 03:00:26;;;;;;;1.42;0.70;;;10.60;90.90;;;;;;6166243;23;20009;-78
2023/09/24 03:02:55;;;;;;;1.27;0.85;;;10.50;90.90;;;;;;6192564;23;20092;-77
2023/09/24 03:05:24;;;;;;;1.42;0.80;;;10.50;90.90;;;;;;6168476;23;20016;-77
2023/09/24 03:07:51;;;;;;;1.13;0.73;;;10.50;90.90;;;;;;6191265;23;20002;-77
2023/09/24 03:10:18;;;;;;;0.80;0.70;;;10.50;90.90;;;;;;6117311;23;20005;-77
2023/09/24 03:12:45;;;;;;;1.27;0.75;;;10.50;90.90;;;;;;6164531;23;20060;-77
2023/09/24 03:15:12;;;;;;;0.70;0.70;;;10.50;90.90;;;;;;6164445;23;20013;-78
2023/09/24 03:17:40;;;;;;;0.68;0.65;;;10.50;90.90;;;;;;6163757;23;20139;-77
2023/09/24 03:20:15;;;;;;;0.70;0.70;;;10.50;90.90;;;;;;6139429;23;20031;-77
2023/09/24 03:22:48;;;;;;;0.50;0.50;;;10.40;90.90;;;;;;6192801;23;20063;-78
2023/09/24 03:25:17;;;;;;;0.43;0.43;;;10.40;90.90;;;;;;6164271;23;20068;-78
2023/09/24 03:27:44;;;;;;;0.75;0.60;;;10.50;91.00;;;;;;6163796;23;20012;-77
2023/09/24 03:30:10;;;;;;;0.98;0.80;;;10.40;90.90;;;;;;6164877;23;20072;-77
2023/09/24 03:32:37;;;;;;;0.65;0.65;;;10.40;90.90;;;;;;6138481;23;19999;-77
2023/09/24 03:35:09;;;;;;;0.70;0.70;;;10.40;91.00;;;;;;6162514;23;20330;-77
2023/09/24 03:37:40;;;;;;;0.95;0.60;;;10.40;91.00;;;;;;6138314;23;20017;-77
2023/09/24 03:40:10;;;;;;;;;;;10.40;91.00;;;;;;6162752;23;20002;-77
2023/09/24 03:42:36;;;;;;;0.75;0.60;;;10.40;91.00;;;;;;6159930;23;19959;-77
2023/09/24 03:45:02;;;;;;;0.60;0.60;;;10.40;91.00;;;;;;6188634;23;20019;-77
2023/09/24 03:47:28;;;;;;;0.90;0.80;;;10.30;91.00;;;;;;6161798;23;20048;-77
2023/09/24 03:49:54;;;;;;;0.70;0.52;;;10.30;91.00;;;;;;6163307;23;20005;-77
2023/09/24 03:52:19;;;;;;;1.23;0.75;;;10.30;91.00;;;;;;6163040;23;20001;-77
2023/09/24 03:54:45;;;;;;;1.15;0.60;;;10.30;90.90;;;;;;6189426;23;20438;-77
2023/09/24 03:57:11;;;;;;;1.98;0.77;;;10.20;90.90;;;;;;6190656;23;20001;-78
2023/09/24 03:59:37;;;;;;;1.63;0.80;;;10.20;91.00;;;;;;6164854;23;20009;-78
2023/09/24 04:02:08;;;;;;;0.68;0.50;;;10.30;91.00;;;;;;6138608;23;20021;-77
2023/09/24 04:04:36;;;;;;;0.68;0.68;;;10.30;91.00;;;;;;6101564;23;20454;-77
2023/09/24 04:07:03;;;;;;;1.00;0.90;;;10.20;91.00;;;;;;6101751;23;20472;-78
2023/09/24 04:09:32;;;;;;;0.60;0.60;;;10.20;91.00;;;;;;6077560;23;20037;-78
2023/09/24 04:12:00;;;;;;;0.73;0.63;;;10.20;91.00;;;;;;6079963;23;20021;-77
2023/09/24 04:14:26;;;;;;;0.57;0.57;;;10.20;91.00;;;;;;6015594;23;20090;-77
2023/09/24 04:16:52;;;;;;;0.70;0.70;;;10.20;91.00;;;;;;6017222;23;20019;-77
2023/09/24 04:19:18;;;;;;;0.80;0.70;;;10.10;91.00;;;;;;6040396;23;20551;-77
2023/09/24 04:21:45;;;;;;;0.50;0.50;;;10.10;91.00;;;;;;6020203;23;20379;-77
2023/09/24 04:24:13;;;;;;;1.23;0.82;;;10.10;91.00;;;;;;6044082;23;20148;-78
2023/09/24 04:26:39;;;;;;;1.13;0.80;;;10.10;91.00;;;;;;6042555;23;20534;-77
2023/09/24 04:29:05;;;;;;;0.70;0.60;;;10.10;91.00;;;;;;6017590;23;20110;-77
2023/09/24 04:31:31;;;;;;;0.60;0.60;;;10.00;91.00;;;;;;6040872;23;20013;-77
2023/09/24 04:33:57;;;;;;;0.50;0.50;;;10.10;91.10;;;;;;6039845;23;20012;-77
2023/09/24 04:36:23;;;;;;;0.88;0.77;;;10.00;91.00;;;;;;6067453;23;20089;-77
2023/09/24 04:38:49;;;;;;;0.65;0.65;;;9.90;91.00;;;;;;6073344;23;20006;-77
2023/09/24 04:41:16;;;;;;;0.95;0.70;;;10.00;91.10;;;;;;6097671;23;20038;-77
2023/09/24 04:43:42;;;;;;;0.70;0.70;;;10.00;91.10;;;;;;6072667;23;20098;-77
2023/09/24 04:46:08;;;;;;;1.10;0.93;;;9.90;91.10;;;;;;6169235;23;20092;-79
2023/09/24 04:48:35;;;;;;;1.02;0.80;;;9.90;91.10;;;;;;6161591;23;20004;-77
2023/09/24 04:51:01;;;;;;;1.38;1.00;;;9.90;91.10;;;;;;6137666;23;20059;-78
2023/09/24 04:53:27;;;;;;;0.60;0.60;;;9.80;91.10;;;;;;6160705;23;20005;-77
2023/09/24 04:55:54;;;;;;;0.73;0.73;;;9.90;91.10;;;;;;6160559;23;20473;-77
2023/09/24 04:58:20;;;;;;;1.20;0.80;;;9.90;91.10;;;;;;6160217;23;20012;-77
2023/09/24 05:00:45;;;;;;;0.70;0.60;;;9.80;91.10;;;;;;6161246;23;20437;-77
2023/09/24 05:03:11;;;;;;;1.25;0.80;;;9.80;91.10;;;;;;6161273;23;20330;-77
2023/09/24 05:05:42;;;;;;;0.73;0.73;;;9.80;91.10;;;;;;6187845;23;20128;-77
2023/09/24 05:08:08;;;;;;;0.93;0.82;;;9.80;91.10;;;;;;6160933;23;20002;-77
2023/09/24 05:10:36;;;;;;;0.90;0.80;;;9.80;91.10;;;;;;6135680;23;20047;-78
2023/09/24 05:13:04;;;;;;;0.70;0.70;;;9.80;91.10;;;;;;6159454;23;20027;-77
2023/09/24 05:15:30;;;;;;;0.73;0.70;;;9.80;91.10;;;;;;6134632;23;20009;-78
2023/09/24 05:17:56;;;;;;;0.60;0.60;;;9.80;91.10;;;;;;6133850;23;20072;-77
2023/09/24 05:20:22;;;;;;;0.80;0.70;;;9.70;91.10;;;;;;6133502;23;20009;-77
2023/09/24 05:22:47;;;;;;;0.63;0.63;;;9.70;91.10;;;;;;6158648;23;20059;-77
2023/09/24 05:25:14;;;;;;;1.58;1.00;;;9.70;91.10;;;;;;6134632;23;20092;-77
2023/09/24 05:27:40;;;;;;;0.70;0.70;;;9.70;91.10;;;;;;6133626;23;20001;-77
2023/09/24 05:30:07;;;;;;;0.82;0.73;;;9.70;91.10;;;;;;6134288;23;20046;-77
2023/09/24 05:32:34;;;;;;;0.82;0.70;;;9.70;91.10;;;;;;6158066;23;20326;-77
2023/09/24 05:35:00;;;;;;;0.50;0.50;;;9.60;91.00;;;;;;6158076;23;20028;-77
2023/09/24 05:37:26;;;;;;;1.13;0.77;;;9.60;91.10;;;;;;6109089;23;20068;-77
2023/09/24 05:39:52;;;;;;;0.65;0.65;;;9.60;91.10;;;;;;6184554;23;20001;-77
2023/09/24 05:42:18;;;;;;;1.02;0.93;;;9.60;91.10;;;;;;6158279;23;20001;-77
2023/09/24 05:44:44;;;;;;;1.60;0.70;;;9.60;91.10;;;;;;6131611;23;20374;-77
2023/09/24 05:47:11;;;;;;;1.42;0.95;;;9.60;91.10;;;;;;6185493;23;20418;-77
2023/09/24 05:49:36;;;;;;;0.88;0.82;;;9.60;91.10;;;;;;6159598;23;20449;-77
2023/09/24 05:52:06;;;;;;;0.93;0.80;;;9.60;91.10;;;;;;6159672;23;20009;-77
2023/09/24 05:54:31;;;;;;;0.75;0.65;;;9.60;91.00;;;;;;6094357;23;20069;-78
2023/09/24 05:56:58;;;;;;;0.80;0.70;;;9.60;91.00;;;;;;6094503;23;20387;-77
2023/09/24 05:59:24;;;;;;;1.00;0.88;;;9.70;91.10;;;;;;6067981;23;20366;-77
2023/09/24 06:01:50;;;;;;;1.13;0.88;;;9.70;91.00;;;;;;6069994;23;20443;-77
2023/09/24 06:04:15;;;;;;;1.60;0.90;;;9.70;91.00;;;;;;6069155;23;20432;-77
2023/09/24 06:06:42;;;;;;;1.33;1.02;;;9.70;91.00;;;;;;6093466;23;20018;-77
2023/09/24 06:09:09;;;;;;;0.70;0.70;;;9.70;91.00;;;;;;6070115;23;20089;-78
2023/09/24 06:11:37;;;;;;;0.80;0.80;;;9.70;91.00;;;;;;6094804;23;20010;-78
2023/09/24 06:14:08;;;;;;;0.70;0.70;;;9.70;90.90;;;;;;6091250;23;20056;-77
2023/09/24 06:16:36;;;;;;;1.10;0.80;;;9.70;90.90;;;;;;6091413;23;20829;-77
2023/09/24 06:19:03;;;;;;;0.98;0.88;;;9.80;90.90;;;;;;6096301;23;20138;-77
2023/09/24 06:21:28;;;;;;;2.13;0.85;;;9.80;90.90;;;;;;6071358;23;20013;-77
2023/09/24 06:23:55;;;;;;;1.17;0.90;;;9.90;90.90;;;;;;6069679;23;20015;-77
2023/09/24 06:26:21;;;;;;;0.70;0.70;;;9.90;90.80;;;;;;6149336;23;20017;-77
2023/09/24 06:28:47;;;;;;;1.02;0.80;;;9.90;90.80;;;;;;6154814;23;20129;-78
2023/09/24 06:31:13;;;;;;;1.15;0.80;;;10.00;90.80;;;;;;6184719;23;20441;-77
2023/09/24 06:33:38;;;;;;;0.93;0.85;;;10.10;90.80;;;;;;6157782;23;20001;-77
2023/09/24 06:36:05;;;;;;;1.92;0.55;;;10.00;90.70;;;;;;6183978;23;20382;-77
2023/09/24 06:38:32;;;;;;;0.60;0.60;;;10.10;90.70;;;;;;6184246;23;20024;-77
2023/09/24 06:41:00;;;;;;;0.88;0.70;;;10.20;90.70;;;;;;6157805;23;20037;-77
2023/09/24 06:43:26;;;;;;;1.27;0.80;;;10.30;90.70;;;;;;6184980;23;19997;-77
2023/09/24 06:45:54;;;;;;;1.30;0.85;;;10.30;90.60;;;;;;6184440;23;20004;-77
2023/09/24 06:48:20;;;;;;;0.70;0.60;;;10.40;90.60;;;;;;6134444;23;20005;-77
2023/09/24 06:50:46;;;;;;;0.75;0.57;;;10.40;90.60;;;;;;6158242;23;20009;-77
2023/09/24 06:53:12;;;;;;;0.93;0.70;;;10.50;90.60;;;;;;6184670;23;20036;-77
2023/09/24 06:55:41;;;;;;;1.35;0.70;;;10.50;90.50;;;;;;6156410;23;20005;-78
2023/09/24 06:58:08;;;;;;;0.77;0.63;;;10.60;90.50;;;;;;6158191;23;20009;-77
2023/09/24 07:00:34;;;;;;;0.70;0.70;;;10.60;90.50;;;;;;6157570;23;20449;-77
2023/09/24 07:03:00;;;;;;;1.00;0.68;;;10.70;90.50;;;;;;6132919;23;20088;-77
2023/09/24 07:05:26;;;;;;;0.85;0.70;;;10.70;90.40;;;;;;6134025;23;20028;-77
2023/09/24 07:07:52;;;;;;;1.50;0.70;;;10.80;90.50;;;;;;6157675;23;20016;-77
2023/09/24 07:10:20;;;;;;;0.82;0.73;;;10.80;90.40;;;;;;6132594;23;20341;-77
2023/09/24 07:12:46;;;;;;;0.73;0.70;;;10.80;90.40;;;;;;6185827;23;19997;-78
2023/09/24 07:15:12;;;;;;;0.85;0.63;;;10.90;90.40;;;;;;6157171;23;20033;-77
2023/09/24 07:17:38;;;;;;;0.40;0.40;;;10.90;90.40;;;;;;6183721;23;20005;-77
2023/09/24 07:20:08;;;;;;;0.90;0.75;;;11.00;90.40;;;;;;6157659;23;20411;-77
2023/09/24 07:22:34;;;;;;;0.88;0.73;;;11.00;90.40;;;;;;6132985;23;20388;-77
2023/09/24 07:24:59;;;;;;;0.80;0.70;;;11.10;90.40;;;;;;6157697;23;20048;-77
2023/09/24 07:27:25;;;;;;;0.68;0.60;;;11.10;90.40;;;;;;6159023;23;19997;-77
2023/09/24 07:29:51;;;;;;;0.73;0.70;;;11.10;90.40;;;;;;6158829;23;19997;-77
2023/09/24 07:32:17;;;;;;;1.15;0.80;;;11.30;90.40;;;;;;6134691;23;20008;-77
2023/09/24 07:34:46;;;;;;;0.73;0.73;;;11.20;90.40;;;;;;6134683;23;20056;-78
2023/09/24 07:37:12;;;;;;;1.15;0.80;;;11.30;90.40;;;;;;6185278;23;20055;-78
2023/09/24 07:39:38;;;;;;;1.25;0.80;;;11.30;90.40;;;;;;6185941;23;20005;-77
2023/09/24 07:42:07;;;;;;;1.08;0.60;;;11.30;90.40;;;;;;6133541;23;20076;-77
2023/09/24 07:44:33;;;;;;;0.70;0.70;;;11.40;90.50;;;;;;6158574;23;20017;-77
2023/09/24 07:46:59;;;;;;;0.70;0.50;;;11.50;90.40;;;;;;6109742;23;20007;-77
2023/09/24 07:49:25;;;;;;;0.80;0.65;;;11.50;90.30;;;;;;6188421;23;20007;-77
2023/09/24 07:51:51;;;;;;;0.98;0.80;;;11.60;90.20;;;;;;6162805;23;20008;-77
2023/09/24 07:54:17;;;;;;;0.65;0.63;;;11.70;90.20;;;;;;6141565;23;20005;-78
2023/09/24 07:56:43;;;;;;;0.95;0.70;;;11.80;90.20;;;;;;6143257;23;20013;-77
2023/09/24 07:59:10;;;;;;;0.68;0.68;;;11.80;90.10;;;;;;6168280;23;20005;-79
2023/09/24 08:01:36;;;;;;;1.33;0.60;;;11.90;90.20;;;;;;6125653;23;20084;-77
2023/09/24 08:04:03;;;;;;;2.05;0.77;;;12.00;90.10;;;;;;6176294;23;20028;-78
2023/09/24 08:06:29;;;;;;;1.20;0.57;;;12.10;90.10;;;;;;6156474;23;19985;-78
2023/09/24 08:08:56;;;;;;;0.50;0.50;;;12.20;90.00;;;;;;6209811;23;20001;-78
2023/09/24 08:11:22;;;;;;;0.88;0.70;;;12.30;90.00;;;;;;6157602;23;20012;-79
2023/09/24 08:13:48;;;;;;;1.20;0.70;;;12.40;89.80;;;;;;6155423;23;20008;-78
2023/09/24 08:16:14;;;;;;;0.95;0.60;;;12.50;89.70;;;;;;6207143;23;19989;-78
2023/09/24 08:18:40;;;;;;;1.42;0.70;;;12.60;89.70;;;;;;6207551;23;19982;-78
2023/09/24 08:21:07;;;;;;;0.98;0.75;;;12.70;89.50;;;;;;6178754;23;20012;-78
2023/09/24 08:23:33;;;;;;;0.75;0.50;;;12.70;89.60;;;;;;6155239;23;20012;-78
2023/09/24 08:26:00;;;;;;;1.55;0.82;;;12.70;89.30;;;;;;6131879;23;19997;-78
2023/09/24 08:28:25;;;;;;;0.50;0.50;;;12.90;89.30;;;;;;6179278;23;20009;-78
2023/09/24 08:30:51;;;;;;;0.40;0.40;;;13.00;89.30;;;;;;6179440;23;19997;-78
2023/09/24 08:33:17;;;;;;;0.60;0.60;;;13.00;89.10;;;;;;6156897;23;20041;-78
2023/09/24 08:35:43;;;;;;;1.67;0.70;;;13.20;89.10;;;;;;6159064;23;20005;-77
2023/09/24 08:38:09;;;;;;;1.02;0.77;;;13.30;88.90;;;;;;6211383;23;20060;-77
2023/09/24 08:40:35;;;;;;;0.60;0.60;;;13.40;88.70;;;;;;6210177;23;20142;-78
2023/09/24 08:43:08;;;;;;;0.90;0.70;;;13.50;88.50;;;;;;6211553;23;19978;-79
2023/09/24 08:45:34;;;;;;;1.50;0.60;;;13.60;88.40;;;;;;6186313;23;20012;-78
2023/09/24 08:48:07;;;;;;;0.50;0.50;;;13.70;88.20;;;;;;6160911;23;20017;-78
2023/09/24 08:50:36;;;;;;;0.73;0.40;;;13.70;88.10;;;;;;6186056;23;20048;-78
2023/09/24 08:53:05;;;;;;;0.57;0.52;;;13.90;88.00;;;;;;6207548;23;20024;-76
2023/09/24 08:55:31;;;;;;;0.95;0.70;;;14.00;87.80;;;;;;6183049;23;20032;-75
2023/09/24 08:57:57;;;;;;;0.82;0.70;;;14.10;87.60;;;;;;6200439;23;20008;-76
2023/09/24 09:00:23;;;;;;;1.35;0.82;;;14.20;87.40;;;;;;6201166;23;20061;-75
2023/09/24 09:02:48;;;;;;;1.58;0.77;;;14.30;87.20;;;;;;6173580;23;20391;-75
2023/09/24 09:05:33;;;;;;;1.40;1.00;;;14.30;86.90;;;;;;6201157;23;20020;-75
2023/09/24 09:08:01;;;;;;;2.20;0.60;;;14.40;86.70;;;;;;6204163;23;20016;-75
2023/09/24 09:10:27;;;;;;;1.05;0.70;;;14.50;86.70;;;;;;6204326;23;20061;-75
2023/09/24 09:13:10;;;;;;;0.55;0.40;;;14.60;86.70;;;;;;6178728;23;20065;-74
2023/09/24 09:15:38;;;;;;;0.90;0.50;;;14.60;86.50;;;;;;6203973;23;20001;-76
2023/09/24 09:18:24;;;;;;;1.15;0.77;;;14.70;86.50;;;;;;6178459;23;20057;-76
2023/09/24 09:20:51;;;;;;;1.52;0.75;;;14.70;86.30;;;;;;6201228;23;20020;-75
2023/09/24 09:23:37;;;;;;;0.68;0.55;;;14.80;86.30;;;;;;6213906;23;20025;-75
2023/09/24 09:26:06;;;;;;;1.00;0.70;;;14.90;86.10;;;;;;6202128;23;20040;-75
2023/09/24 09:28:34;;;;;;;0.93;0.80;;;15.00;86.00;;;;;;6177468;23;20005;-75
2023/09/24 09:31:06;;;;;;;1.27;0.68;;;15.10;85.90;;;;;;6176953;23;20384;-75
2023/09/24 09:33:35;;;;;;;0.80;0.60;;;15.10;86.50;;;;;;6175730;23;20059;-75
2023/09/24 09:36:02;;;;;;;1.25;0.70;;;15.10;85.80;;;;;;6174546;23;20080;-76
2023/09/24 09:38:28;;;;;;;1.63;0.60;;;15.10;85.80;;;;;;6200892;23;19997;-75
2023/09/24 09:40:57;;;;;;;1.20;0.73;;;15.20;86.00;;;;;;6175843;23;20116;-75
2023/09/24 09:43:25;;;;;;;1.02;0.75;;;15.20;86.00;;;;;;6174020;23;19993;-75
2023/09/24 09:45:53;;;;;;;1.25;0.65;;;15.20;86.00;;;;;;6176338;23;20031;-75
2023/09/24 09:48:28;;;;;;;0.85;0.38;;;15.30;85.90;;;;;;6202517;23;20056;-76
2023/09/24 09:50:59;;;;;;;1.35;0.70;;;15.40;85.80;;;;;;6200914;23;19997;-75
2023/09/24 09:53:30;;;;;;;0.77;0.68;;;15.40;85.70;;;;;;6195326;23;19997;-75
2023/09/24 09:55:57;;;;;;;1.98;0.60;;;15.50;85.50;;;;;;6152574;23;20005;-75
2023/09/24 09:58:23;;;;;;;5.07;0.80;;;15.60;85.50;;;;;;6168778;23;20009;-74
2023/09/24 10:00:51;;;;;;;0.80;0.63;;;15.60;85.30;;;;;;6174029;23;20013;-74
2023/09/24 10:03:18;;;;;;;0.88;0.80;;;15.60;85.10;;;;;;6194355;23;20005;-75
2023/09/24 10:05:45;;;;;;;1.45;0.70;;;15.70;85.10;;;;;;6197530;23;20021;-75
2023/09/24 10:08:44;;;;;;;1.67;0.80;;;15.80;85.10;;;;;;6168217;23;20463;-75
2023/09/24 10:11:28;;;;;;;1.58;0.80;;;15.90;84.80;;;;;;6169781;23;20012;-75
2023/09/24 10:13:54;;;;;;;1.27;0.70;;;15.90;84.50;;;;;;6194361;23;20062;-76
2023/09/24 10:16:35;;;;;;;0.85;0.57;;;16.00;84.30;;;;;;6192997;23;20071;-75
2023/09/24 10:19:08;;;;;;;0.95;0.75;;;16.00;84.30;;;;;;6147767;23;20013;-75
2023/09/24 10:21:36;;;;;;;0.80;0.70;;;16.10;84.20;;;;;;6178279;23;20001;-76
2023/09/24 10:24:37;;;;;;;2.13;0.47;;;16.10;84.10;;;;;;6175203;23;20008;-75
2023/09/24 10:27:07;;;;;;;1.20;0.63;;;16.20;84.10;;;;;;6181163;23;20402;-76
2023/09/24 10:30:05;;;;;;;1.38;0.52;;;16.20;84.10;;;;;;6160381;23;20000;-76
2023/09/24 10:32:43;;;;;;;0.73;0.65;;;16.30;84.30;;;;;;6208599;23;19997;-79
2023/09/24 10:35:10;;;;;;;3.95;0.65;;;16.30;84.10;;;;;;6177084;23;20067;-78
2023/09/24 10:37:39;;;;;;;1.92;0.85;;;16.40;83.90;;;;;;6178923;23;20012;-75
2023/09/24 10:40:09;;;;;;;1.30;0.70;;;16.50;83.80;;;;;;6184107;23;20021;-76
2023/09/24 10:42:38;;;;;;;0.93;0.55;;;16.50;83.50;;;;;;6211198;23;20000;-77
2023/09/24 10:45:24;;;;;;;1.17;0.55;;;16.50;83.40;;;;;;6204736;23;20064;-77
2023/09/24 10:47:50;;;;;;;2.03;0.60;;;16.70;83.40;;;;;;6181818;23;20032;-76
2023/09/24 10:50:19;;;;;;;1.48;0.50;;;16.70;83.40;;;;;;6158811;23;20346;-76
2023/09/24 10:52:50;;;;;;;0.57;0.50;;;16.80;83.00;;;;;;6183099;23;20013;-77
2023/09/24 10:55:20;;;;;;;1.23;0.65;;;16.80;82.90;;;;;;6184612;23;20050;-77
2023/09/24 10:57:47;;;;;;;0.95;0.50;;;16.80;82.60;;;;;;6208199;23;20017;-76
2023/09/24 11:00:21;;;;;;;1.10;0.60;;;16.90;82.60;;;;;;6161848;23;20004;-77
2023/09/24 11:03:04;;;;;;;1.50;0.65;;;16.90;82.50;;;;;;6186050;23;20005;-77
2023/09/24 11:05:40;;;;;;;1.00;0.50;;;16.90;82.40;;;;;;6206218;23;20020;-75
2023/09/24 11:08:06;;;;;;;1.83;0.80;;;17.00;82.40;;;;;;6138346;23;20012;-77
2023/09/24 11:10:32;;;;;;;0.90;0.55;;;17.10;82.30;;;;;;6206942;23;20017;-77
2023/09/24 11:13:00;;;;;;;1.15;0.60;;;17.20;82.20;;;;;;6208996;23;20040;-76
2023/09/24 11:15:31;;;;;;;1.27;0.55;;;17.30;81.90;;;;;;6210413;23;20032;-76
2023/09/24 11:17:57;;;;;;;0.43;0.38;;;17.40;81.60;;;;;;6184799;23;20008;-77
2023/09/24 11:20:24;;;;;;;0.55;0.40;;;17.40;81.50;;;;;;6155182;23;20001;-78
2023/09/24 11:22:56;;;;;;;0.60;0.40;;;17.40;81.30;;;;;;6182127;23;20071;-76
2023/09/24 11:25:22;;;;;;;1.70;0.40;;;17.50;81.30;;;;;;6159729;23;20024;-76
2023/09/24 11:27:51;;;;;;;1.63;0.68;;;17.60;81.10;;;;;;6208173;23;20013;-76
2023/09/24 11:30:18;;;;;;;1.58;0.63;;;17.60;80.90;;;;;;6142287;23;20080;-73
2023/09/24 11:32:45;;;;;;;1.63;0.70;;;17.70;80.80;;;;;;6178834;23;20028;-76
2023/09/24 11:35:13;;;;;;;1.10;0.80;;;17.70;80.60;;;;;;6161393;23;20044;-76
2023/09/24 11:37:50;;;;;;;2.10;0.68;;;17.80;80.60;;;;;;6211285;23;20025;-76
2023/09/24 11:40:33;;;;;;;0.70;0.65;;;17.80;80.30;;;;;;6186946;23;20009;-77
2023/09/24 11:43:02;;;;;;;1.23;0.60;;;18.00;80.30;;;;;;6133694;23;20040;-74
2023/09/24 11:45:41;;;;;;;0.95;0.60;;;17.90;80.20;;;;;;6159139;23;20016;-76
2023/09/24 11:48:10;;;;;;;1.13;0.47;;;17.90;80.00;;;;;;6199350;23;20016;-76
2023/09/24 11:50:38;;;;;;;0.77;0.52;;;18.00;80.10;;;;;;6126080;23;20025;-77
2023/09/24 11:53:07;;;;;;;1.25;0.65;;;18.00;79.90;;;;;;6169282;23;20033;-76
2023/09/24 11:55:33;;;;;;;1.73;0.70;;;18.00;79.70;;;;;;6171469;23;20065;-74
2023/09/24 11:57:59;;;;;;;0.85;0.55;;;18.10;79.50;;;;;;6138070;23;20005;-73
2023/09/24 12:00:25;;;;;;;0.52;0.50;;;18.30;79.40;;;;;;6137576;23;20002;-74
2023/09/24 12:02:51;;;;;;;0.95;0.50;;;18.30;79.10;;;;;;6162450;23;20368;-74
2023/09/24 12:05:16;;;;;;;0.70;0.43;;;18.40;78.80;;;;;;6189175;23;20059;-74
2023/09/24 12:07:42;;;;;;;1.60;0.60;;;18.50;78.70;;;;;;6107218;23;20029;-74
2023/09/24 12:10:08;;;;;;;1.10;0.60;;;18.70;78.50;;;;;;6142454;23;20037;-76
2023/09/24 12:12:34;;;;;;;0.85;0.50;;;18.70;78.20;;;;;;6184839;23;20008;-77
2023/09/24 12:15:01;;;;;;;1.35;0.70;;;18.80;77.90;;;;;;6182285;23;20064;-75
2023/09/24 12:17:27;;;;;;;0.55;0.55;;;18.80;77.60;;;;;;6210622;23;20068;-77
2023/09/24 12:19:53;;;;;;;0.80;0.68;;;18.80;77.60;;;;;;6209216;23;19985;-78
2023/09/24 12:22:19;;;;;;;0.80;0.70;;;18.80;77.70;;;;;;6208796;23;20061;-77
2023/09/24 12:24:44;;;;;;;0.60;0.50;;;18.80;77.70;;;;;;6180697;23;20005;-77
2023/09/24 12:27:11;;;;;;;0.60;0.50;;;18.90;77.60;;;;;;6166157;23;20076;-74
2023/09/24 12:29:36;;;;;;;0.80;0.50;;;18.90;77.40;;;;;;6181983;23;20021;-77
2023/09/24 12:32:02;;;;;;;1.67;0.80;;;18.90;77.40;;;;;;6210276;23;19992;-77
2023/09/24 12:34:28;;;;;;;0.60;0.60;;;18.90;77.50;;;;;;6185345;23;20052;-76
2023/09/24 12:36:54;;;;;;;0.98;0.60;;;18.70;77.50;;;;;;6200278;23;20008;-80
2023/09/24 12:39:25;;;;;;;2.33;0.63;;;18.80;77.80;;;;;;6148241;23;20009;-83
2023/09/24 12:42:06;;;;;;;2.95;0.57;;;18.80;77.70;;;;;;6163898;23;20021;-82
2023/09/24 12:44:32;;;;;;;0.60;0.50;;;18.90;77.50;;;;;;6135981;23;20017;-81
2023/09/24 12:46:58;;;;;;;0.75;0.43;;;18.90;77.20;;;;;;6202291;23;20012;-79
2023/09/24 12:49:24;;;;;;;0.40;0.40;;;18.90;77.00;;;;;;6153073;23;20009;-79
2023/09/24 12:51:49;;;;;;;0.98;0.65;;;19.00;76.90;;;;;;6149892;23;20361;-79